Time;durP1;ratioP1;P1;durP2;ratioP2;P2;SDS_P1;SDS_P2;PMS_P1;PMS_P2;Temp;Humidity;BMP_temperature;BMP_pressure;BME280_temperature;BME280_humidity;BME280_pressure;Samples;Min_cycle;Max_cycle;Signal;HPM_P1;HPM_P2
2021/04/03 00:00:56;;;;;;;10.65;2.15;;;;;;;9.45;49.83;102875.66;5052745;28;20025;-84
2021/04/03 00:03:25;;;;;;;14.95;2.58;;;;;;;9.07;50.85;102875.84;5047185;28;20121;-82
2021/04/03 00:05:53;;;;;;;11.07;2.65;;;;;;;9.09;51.17;102866.19;5046812;28;20057;-83
2021/04/03 00:08:24;;;;;;;10.55;2.25;;;;;;;9.49;50.48;102861.63;5054086;28;20353;-83
2021/04/03 00:11:00;;;;;;;11.02;2.08;;;;;;;9.38;51.18;102868.47;5051449;28;20464;-83
2021/04/03 00:13:30;;;;;;;17.42;2.67;;;;;;;9.49;51.21;102866.03;5050766;28;20173;-83
2021/04/03 00:15:57;;;;;;;20.40;3.58;;;;;;;9.44;50.91;102867.72;5053236;28;20029;-83
2021/04/03 00:18:24;;;;;;;15.95;2.88;;;;;;;9.31;51.81;102877.16;5052945;28;20551;-84
2021/04/03 00:20:51;;;;;;;15.73;2.03;;;;;;;9.27;51.47;102886.81;5053388;28;20025;-82
2021/04/03 00:23:20;;;;;;;10.43;2.70;;;;;;;9.30;52.04;102870.13;5051989;28;20496;-84
2021/04/03 00:25:47;;;;;;;17.02;2.85;;;;;;;9.27;51.67;102873.59;5050323;28;20021;-83
2021/04/03 00:28:13;;;;;;;10.35;1.90;;;;;;;9.47;51.63;102873.03;5053144;28;20029;-82
2021/04/03 00:30:41;;;;;;;12.45;2.83;;;;;;;9.26;52.12;102877.09;5052471;28;20033;-82
2021/04/03 00:33:07;;;;;;;12.20;1.92;;;;;;;9.03;51.70;102876.66;5037264;28;20264;-84
2021/04/03 00:35:37;;;;;;;17.13;3.00;;;;;;;9.35;51.19;102866.66;5044956;28;20033;-84
2021/04/03 00:38:05;;;;;;;10.93;3.35;;;;;;;9.38;51.61;102861.44;5039969;28;20022;-83
2021/04/03 00:40:37;;;;;;;18.65;2.42;;;;;;;9.29;51.30;102866.56;5050739;28;20029;-83
2021/04/03 00:43:08;;;;;;;13.32;2.58;;;;;;;8.96;51.75;102853.59;5035657;28;20052;-84
2021/04/03 00:45:35;;;;;;;9.45;2.30;;;;;;;9.28;51.58;102851.56;5044404;28;20025;-83
2021/04/03 00:48:03;;;;;;;10.93;2.50;;;;;;;9.21;50.88;102854.97;5039816;28;20492;-85
2021/04/03 00:50:33;;;;;;;24.10;3.30;;;;;;;9.09;51.81;102849.47;5050273;28;20400;-84
2021/04/03 00:52:59;;;;;;;12.30;2.78;;;;;;;9.27;51.08;102833.91;5039701;28;20017;-84
2021/04/03 00:55:26;;;;;;;17.85;3.38;;;;;;;9.26;51.27;102842.72;5043753;28;20102;-83
2021/04/03 00:57:54;;;;;;;20.90;3.35;;;;;;;9.41;50.79;102838.53;5037130;28;20383;-84
2021/04/03 01:00:21;;;;;;;13.95;2.70;;;;;;;9.43;51.21;102843.00;5045170;28;20144;-84
2021/04/03 01:02:48;;;;;;;18.33;3.10;;;;;;;9.35;51.11;102842.88;5049670;28;20033;-83
2021/04/03 01:05:19;;;;;;;16.13;3.25;;;;;;;9.57;51.12;102842.34;5041274;28;20029;-84
2021/04/03 01:07:45;;;;;;;11.95;2.38;;;;;;;9.61;50.70;102845.06;5041643;28;20025;-84
2021/04/03 01:10:16;;;;;;;17.27;3.00;;;;;;;9.69;50.22;102842.53;5049208;28;20484;-84
2021/04/03 01:16:02;;;;;;;16.58;2.92;;;;;;;9.50;51.23;102844.00;5090609;28;20427;-82
2021/04/03 01:19:08;;;;;;;19.27;3.63;;;;;;;9.55;50.95;102839.66;5069328;28;20056;-82
2021/04/03 01:22:14;;;;;;;19.15;3.13;;;;;;;9.46;51.18;102850.09;5060791;28;20048;-84
2021/04/03 01:25:18;;;;;;;11.90;2.70;;;;;;;9.58;50.50;102844.13;5053785;28;20036;-83
2021/04/03 01:30:34;;;;;;;18.38;3.38;;;;;;;9.54;50.26;102837.88;5068547;28;20154;-82
2021/04/03 01:33:10;;;;;;;16.90;3.00;;;;;;;9.51;50.32;102843.13;5056611;28;20032;-83
2021/04/03 01:35:57;;;;;;;19.67;3.30;;;;;;;9.68;50.00;102831.06;5064729;28;20028;-83
2021/04/03 01:41:07;;;;;;;15.10;2.88;;;;;;;9.41;49.74;102835.88;5090818;28;20973;-83
2021/04/03 01:43:46;;;;;;;22.10;3.40;;;;;;;9.45;49.69;102840.38;5070509;28;20044;-81
2021/04/03 01:46:16;;;;;;;21.30;3.42;;;;;;;9.47;50.09;102836.91;5070029;28;20043;-82
2021/04/03 01:48:51;;;;;;;14.63;3.05;;;;;;;9.48;48.94;102838.69;5065114;28;20211;-81
2021/04/03 01:51:19;;;;;;;11.02;2.55;;;;;;;9.52;49.71;102823.72;5050269;28;20061;-82
2021/04/03 01:53:46;;;;;;;12.40;2.55;;;;;;;9.53;48.21;102825.50;5050034;28;20056;-83
2021/04/03 01:56:16;;;;;;;13.60;3.03;;;;;;;9.25;47.52;102832.13;5050156;28;20029;-83
2021/04/03 01:58:44;;;;;;;23.98;2.92;;;;;;;9.54;47.87;102829.94;5048988;28;20037;-83
2021/04/03 02:01:11;;;;;;;16.63;3.40;;;;;;;9.40;47.47;102827.06;5049980;28;20025;-82
2021/04/03 02:03:38;;;;;;;17.95;4.25;;;;;;;9.45;47.90;102821.88;5050090;28;20119;-83
2021/04/03 02:06:08;;;;;;;16.33;3.05;;;;;;;9.63;48.02;102832.75;5050351;28;20108;-82
2021/04/03 02:08:35;;;;;;;23.08;3.58;;;;;;;9.79;47.42;102830.34;5049777;28;20033;-83
2021/04/03 02:11:05;;;;;;;18.35;3.25;;;;;;;9.69;48.38;102827.56;5050126;28;20029;-83
2021/04/03 02:13:32;;;;;;;13.85;3.03;;;;;;;9.66;48.54;102832.78;5049944;28;20037;-83
2021/04/03 02:16:01;;;;;;;16.80;3.15;;;;;;;9.74;47.96;102832.91;5049978;28;20033;-83
2021/04/03 02:18:31;;;;;;;26.40;3.63;;;;;;;9.41;48.62;102835.88;5049650;28;20034;-82
2021/04/03 02:21:03;;;;;;;13.63;2.55;;;;;;;9.65;47.99;102846.00;5049881;28;20099;-83
2021/04/03 02:23:32;;;;;;;15.60;2.83;;;;;;;9.38;48.25;102850.88;5049748;28;20465;-82
2021/04/03 02:25:58;;;;;;;12.73;2.80;;;;;;;9.58;47.82;102837.06;5050118;28;20029;-83
2021/04/03 02:28:25;;;;;;;19.50;3.13;;;;;;;9.39;47.25;102843.81;5049289;28;20022;-83
2021/04/03 02:30:53;;;;;;;14.77;3.25;;;;;;;9.44;48.16;102835.97;5049574;28;20032;-84
2021/04/03 02:33:20;;;;;;;16.55;3.13;;;;;;;9.75;47.01;102833.81;5049803;28;20041;-83
2021/04/03 02:35:47;;;;;;;21.88;3.05;;;;;;;9.57;47.80;102829.09;5049647;28;20469;-83
2021/04/03 02:38:15;;;;;;;21.88;3.75;;;;;;;9.73;47.45;102847.00;5049321;28;20044;-83
2021/04/03 02:40:42;;;;;;;17.02;3.08;;;;;;;9.74;47.95;102847.91;5049182;28;20457;-82
2021/04/03 02:43:27;;;;;;;22.42;3.08;;;;;;;9.64;48.14;102849.50;5049531;28;20029;-82
2021/04/03 02:46:03;;;;;;;15.65;2.83;;;;;;;9.80;47.82;102837.41;5049462;28;20029;-83
2021/04/03 02:48:34;;;;;;;11.70;2.42;;;;;;;9.76;48.15;102844.41;5049470;28;20035;-82
2021/04/03 02:51:03;;;;;;;19.45;3.63;;;;;;;9.76;48.20;102835.56;5043668;28;20432;-82
2021/04/03 02:53:32;;;;;;;21.27;3.20;;;;;;;9.87;47.76;102841.94;5035852;28;20445;-83
2021/04/03 02:56:03;;;;;;;12.55;2.78;;;;;;;9.84;47.65;102841.88;5035783;28;20029;-83
2021/04/03 02:58:35;;;;;;;18.35;2.67;;;;;;;9.94;47.39;102846.44;5035698;28;20076;-84
2021/04/03 03:01:02;;;;;;;21.60;3.17;;;;;;;9.79;47.76;102840.91;5035662;28;20480;-82
2021/04/03 03:03:31;;;;;;;13.73;2.70;;;;;;;9.66;48.40;102843.38;5035693;28;20021;-82
2021/04/03 03:05:59;;;;;;;24.13;4.07;;;;;;;9.57;48.92;102837.03;5035350;28;20026;-83
2021/04/03 03:08:27;;;;;;;19.17;4.40;;;;;;;10.00;47.70;102833.28;5034178;28;20038;-83
2021/04/03 03:10:55;;;;;;;25.52;4.70;;;;;;;9.91;48.64;102834.94;5035642;28;20056;-83
2021/04/03 03:13:24;;;;;;;20.25;3.65;;;;;;;9.97;48.81;102833.25;5035481;28;20025;-83
2021/04/03 03:15:50;;;;;;;19.23;3.75;;;;;;;9.94;48.62;102832.31;5035465;28;20420;-84
2021/04/03 03:18:18;;;;;;;15.40;3.65;;;;;;;9.80;49.21;102834.75;5035297;28;20376;-83
2021/04/03 03:20:46;;;;;;;22.92;4.25;;;;;;;9.77;49.21;102829.41;5018993;28;20159;-84
2021/04/03 03:23:15;;;;;;;25.23;4.25;;;;;;;9.84;49.48;102826.00;5035641;28;20029;-83
2021/04/03 03:25:41;;;;;;;24.42;3.92;;;;;;;9.79;49.39;102832.97;5035471;28;20429;-84
2021/04/03 03:28:08;;;;;;;26.15;4.10;;;;;;;9.52;50.35;102842.25;5035358;28;20021;-84
2021/04/03 03:30:45;;;;;;;21.33;4.75;;;;;;;9.58;50.14;102839.69;5035064;28;20026;-82
2021/04/03 03:33:22;;;;;;;22.27;3.45;;;;;;;9.96;49.35;102836.78;5035079;28;20067;-82
2021/04/03 03:35:55;;;;;;;19.13;3.60;;;;;;;9.82;49.19;102838.31;5034983;28;20121;-82
2021/04/03 03:38:22;;;;;;;24.00;3.55;;;;;;;9.79;49.84;102827.69;5034851;28;20108;-83
2021/04/03 03:40:49;;;;;;;16.25;3.17;;;;;;;9.92;48.99;102834.94;5034984;28;20538;-83
2021/04/03 03:43:16;;;;;;;26.52;4.18;;;;;;;9.92;49.37;102840.25;5034965;28;20476;-82
2021/04/03 03:45:44;;;;;;;29.33;4.30;;;;;;;9.97;49.68;102837.66;5034928;28;20029;-82
2021/04/03 03:48:11;;;;;;;16.73;2.90;;;;;;;10.07;49.20;102836.03;5035137;28;20403;-82
2021/04/03 03:50:37;;;;;;;22.55;3.97;;;;;;;9.90;49.79;102838.44;5033471;28;20481;-82
2021/04/03 03:53:04;;;;;;;18.83;2.88;;;;;;;10.14;49.37;102835.25;5034823;28;20105;-83
2021/04/03 03:55:30;;;;;;;19.05;3.88;;;;;;;10.00;49.61;102833.28;5034829;28;20030;-84
2021/04/03 03:57:57;;;;;;;25.20;3.60;;;;;;;9.96;49.98;102834.13;5034709;28;20022;-82
2021/04/03 04:00:23;;;;;;;26.42;3.70;;;;;;;9.93;50.57;102839.38;5033791;28;20392;-83
2021/04/03 04:02:49;;;;;;;23.92;3.63;;;;;;;9.86;50.16;102834.88;5029699;28;20025;-82
2021/04/03 04:05:16;;;;;;;18.58;3.33;;;;;;;9.77;50.52;102835.63;5034564;28;20520;-83
2021/04/03 04:07:42;;;;;;;13.02;3.25;;;;;;;9.76;50.56;102848.81;5033884;28;20041;-83
2021/04/03 04:10:12;;;;;;;20.50;3.70;;;;;;;9.90;50.16;102839.31;5034030;28;20492;-83
2021/04/03 04:12:38;;;;;;;23.42;3.33;;;;;;;9.88;49.99;102846.34;5034074;28;20052;-82
2021/04/03 04:15:06;;;;;;;20.65;4.28;;;;;;;9.85;50.24;102841.03;5034439;28;20610;-84
2021/04/03 04:17:34;;;;;;;19.55;4.07;;;;;;;9.77;50.74;102851.50;5034376;28;20107;-83
2021/04/03 04:20:00;;;;;;;23.55;3.92;;;;;;;9.75;50.54;102842.63;5034467;28;20411;-83
2021/04/03 04:22:27;;;;;;;19.88;3.78;;;;;;;9.88;50.41;102843.69;5034117;28;20100;-83
2021/04/03 04:24:53;;;;;;;23.98;3.92;;;;;;;9.80;51.11;102853.31;5034394;28;20536;-83
2021/04/03 04:27:19;;;;;;;27.88;3.85;;;;;;;9.85;50.82;102843.66;5034028;28;20036;-83
2021/04/03 04:29:45;;;;;;;21.67;4.53;;;;;;;9.59;51.54;102860.00;5033919;28;20381;-80
2021/04/03 04:32:11;;;;;;;28.77;4.45;;;;;;;9.66;52.09;102858.38;5034183;28;20453;-83
2021/04/03 04:34:38;;;;;;;28.30;4.50;;;;;;;9.55;52.45;102856.41;5033798;28;20025;-83
2021/04/03 04:37:04;;;;;;;24.63;4.75;;;;;;;9.66;52.12;102867.19;5034165;28;20069;-83
2021/04/03 04:39:30;;;;;;;18.25;4.03;;;;;;;9.73;52.72;102870.81;5033833;28;20044;-83
2021/04/03 04:41:56;;;;;;;25.98;4.20;;;;;;;9.60;53.12;102864.44;5033510;28;20029;-83
2021/04/03 04:44:23;;;;;;;24.70;4.00;;;;;;;9.74;52.78;102880.56;5016236;28;20535;-85
2021/04/03 04:46:49;;;;;;;26.13;5.60;;;;;;;9.45;54.08;102885.38;5033751;28;20037;-83
2021/04/03 04:49:15;;;;;;;27.05;5.60;;;;;;;9.67;53.01;102882.22;5033887;28;20026;-83
2021/04/03 04:51:41;;;;;;;24.88;4.63;;;;;;;9.75;53.31;102884.09;5033829;28;20038;-84
2021/04/03 04:54:08;;;;;;;31.27;5.18;;;;;;;9.68;53.21;102883.09;5033483;28;20029;-82
2021/04/03 04:56:34;;;;;;;23.85;4.88;;;;;;;9.46;54.30;102893.31;5033476;28;20076;-83
2021/04/03 04:59:00;;;;;;;20.33;3.90;;;;;;;9.69;53.80;102891.09;5033483;28;20044;-83
2021/04/03 05:01:27;;;;;;;18.45;4.43;;;;;;;9.64;53.60;102886.56;5033536;28;20034;-82
2021/04/03 05:03:54;;;;;;;33.67;4.40;;;;;;;9.29;54.58;102895.66;5033504;28;20109;-82
2021/04/03 05:06:20;;;;;;;29.90;4.55;;;;;;;9.45;54.86;102906.53;5033287;28;20036;-83
2021/04/03 05:08:46;;;;;;;34.78;5.97;;;;;;;9.23;55.67;102906.13;5033134;28;20052;-83
2021/04/03 05:11:12;;;;;;;26.83;4.38;;;;;;;9.11;55.66;102900.59;5032923;28;20388;-83
2021/04/03 05:13:38;;;;;;;21.15;4.32;;;;;;;9.26;55.42;102911.50;5032878;28;20404;-82
2021/04/03 05:16:05;;;;;;;36.95;5.60;;;;;;;9.30;55.33;102904.50;5033063;28;20026;-83
2021/04/03 05:18:31;;;;;;;22.17;4.07;;;;;;;9.28;54.86;102914.16;5032733;28;20440;-83
2021/04/03 05:20:57;;;;;;;25.35;5.50;;;;;;;9.29;55.30;102921.25;5032990;28;20526;-83
2021/04/03 05:23:23;;;;;;;26.00;5.88;;;;;;;9.13;55.31;102913.00;5032488;28;20034;-82
2021/04/03 05:25:50;;;;;;;30.48;5.50;;;;;;;8.95;55.79;102921.47;5030374;28;20630;-82
2021/04/03 05:28:16;;;;;;;27.90;5.03;;;;;;;9.11;55.00;102917.38;5033169;28;20064;-83
2021/04/03 05:30:43;;;;;;;22.85;4.55;;;;;;;8.87;55.75;102923.06;5031127;28;20025;-82
2021/04/03 05:33:10;;;;;;;30.42;5.20;;;;;;;8.82;56.27;102925.63;5032547;28;20033;-82
2021/04/03 05:35:37;;;;;;;30.50;4.50;;;;;;;8.84;56.47;102930.94;5030118;28;20392;-82
2021/04/03 05:38:04;;;;;;;38.45;5.63;;;;;;;8.89;56.10;102927.50;5032903;28;20040;-82
2021/04/03 05:40:30;;;;;;;25.20;4.88;;;;;;;8.86;55.63;102932.75;5029979;28;20070;-83
2021/04/03 05:43:02;;;;;;;26.10;4.68;;;;;;;8.66;56.96;102932.34;5048226;28;20034;-82
2021/04/03 05:45:28;;;;;;;27.98;4.70;;;;;;;8.84;56.64;102936.22;5032803;28;20443;-82
2021/04/03 05:47:58;;;;;;;35.45;5.47;;;;;;;8.80;56.57;102937.91;5033114;28;20376;-82
2021/04/03 05:50:25;;;;;;;36.67;5.93;;;;;;;8.54;57.55;102943.50;5033021;28;20112;-82
2021/04/03 05:52:51;;;;;;;39.35;5.68;;;;;;;8.68;57.07;102942.94;5029886;28;20037;-84
2021/04/03 05:55:18;;;;;;;25.52;5.57;;;;;;;8.63;57.29;102940.19;5033197;28;20026;-82
2021/04/03 05:57:44;;;;;;;34.70;6.07;;;;;;;8.61;56.79;102949.84;5032337;28;20115;-82
2021/04/03 06:00:11;;;;;;;27.92;5.13;;;;;;;8.61;57.64;102947.19;5032280;28;20026;-82
2021/04/03 06:02:39;;;;;;;30.67;4.93;;;;;;;8.63;57.47;102949.88;5032572;28;20392;-83
2021/04/03 06:05:06;;;;;;;32.53;4.40;;;;;;;8.73;56.49;102947.47;5032238;28;20048;-83
2021/04/03 06:07:34;;;;;;;29.30;6.30;;;;;;;8.53;57.89;102949.66;5032540;28;20445;-83
2021/04/03 06:10:05;;;;;;;30.65;5.57;;;;;;;8.70;57.24;102957.06;5032464;28;20024;-82
2021/04/03 06:12:48;;;;;;;33.73;4.70;;;;;;;8.53;57.87;102956.69;5032205;28;20521;-82
2021/04/03 06:15:35;;;;;;;34.17;5.05;;;;;;;8.37;58.16;102958.97;5030581;28;20083;-82
2021/04/03 06:18:09;;;;;;;29.88;5.60;;;;;;;8.52;58.64;102957.53;5031426;28;20068;-83
2021/04/03 06:20:39;;;;;;;38.20;5.63;;;;;;;8.31;58.58;102972.03;5032215;28;20038;-82
2021/04/03 06:23:08;;;;;;;27.85;6.05;;;;;;;8.61;58.20;102965.69;5029853;28;20054;-82
2021/04/03 06:25:54;;;;;;;28.40;5.00;;;;;;;8.68;58.47;102979.94;5031236;28;20026;-82
2021/04/03 06:28:27;;;;;;;31.10;4.78;;;;;;;8.71;57.84;102974.69;5034697;28;20022;-82
2021/04/03 06:30:57;;;;;;;36.03;6.40;;;;;;;8.73;58.07;102976.53;5035910;28;20361;-83
2021/04/03 06:33:24;;;;;;;29.65;4.65;;;;;;;8.73;58.13;102972.97;5035995;28;20063;-83
2021/04/03 06:36:08;;;;;;;33.40;5.32;;;;;;;8.46;59.10;102979.44;5033945;28;20033;-84
2021/04/03 06:38:35;;;;;;;26.25;4.65;;;;;;;8.74;58.37;102980.06;5033410;28;20028;-83
2021/04/03 06:46:45;;;;;;;26.25;4.47;;;;;;;8.74;58.20;102980.94;5080943;27;20433;-82
2021/04/03 06:49:13;;;;;;;33.80;7.55;;;;;;;8.86;57.67;102984.72;5067634;28;20037;-82
2021/04/03 06:51:39;;;;;;;33.47;5.25;;;;;;;9.02;57.37;102985.94;5069578;28;20025;-82
2021/04/03 06:54:08;;;;;;;31.80;5.40;;;;;;;8.99;57.11;102997.34;5062862;28;20025;-83
2021/04/03 06:56:35;;;;;;;34.00;5.38;;;;;;;8.99;57.57;102992.06;5059641;28;20445;-82
2021/04/03 06:59:05;;;;;;;38.75;5.80;;;;;;;9.01;56.95;103003.56;5067465;28;20480;-83
2021/04/03 07:07:05;;;;;;;27.00;5.05;;;;;;;9.23;56.34;103011.94;5041571;28;20807;-82
2021/04/03 07:09:33;;;;;;;27.77;5.43;;;;;;;9.26;56.76;103019.94;5020472;28;20034;-82
2021/04/03 07:12:01;;;;;;;35.35;6.68;;;;;;;9.46;55.70;103024.72;5011061;28;20196;-83
2021/04/03 07:14:32;;;;;;;24.70;4.82;;;;;;;9.30;55.62;103024.44;5011049;28;20068;-83
2021/04/03 07:17:01;;;;;;;24.77;5.00;;;;;;;9.49;56.02;103019.50;4993093;28;20034;-83
2021/04/03 07:19:28;;;;;;;24.58;5.00;;;;;;;9.37;55.86;103021.06;5004267;28;20030;-82
2021/04/03 07:21:55;;;;;;;24.35;4.47;;;;;;;9.47;55.92;103021.22;4991369;28;20030;-82
2021/04/03 07:24:22;;;;;;;33.92;5.10;;;;;;;9.33;55.80;103019.22;4991120;28;20540;-81
2021/04/03 07:26:51;;;;;;;25.60;4.22;;;;;;;9.45;55.14;103028.25;4991450;28;20093;-83
2021/04/03 07:32:40;;;;;;;19.55;4.55;;;;;;;9.50;54.80;103016.00;5111869;27;20367;-82
2021/04/03 07:35:24;;;;;;;15.57;5.00;;;;;;;9.62;55.64;103026.81;5111154;28;20045;-83
2021/04/03 07:37:52;;;;;;;29.98;6.07;;;;;;;9.70;54.58;103022.56;5111157;28;20425;-84
2021/04/03 07:48:57;;;;;;;26.80;5.05;;;;;;;10.14;53.90;103034.81;5077727;28;20949;-82
2021/04/03 07:54:04;;;;;;;29.55;5.78;;;;;;;10.43;53.79;103038.84;5079700;28;20840;-83
2021/04/03 07:56:53;;;;;;;29.85;4.40;;;;;;;10.37;53.10;103042.28;5070862;28;20037;-82
2021/04/03 08:02:40;;;;;;;24.15;4.55;;;;;;;10.03;53.86;103050.53;5095667;27;20822;-84
2021/04/03 08:05:11;;;;;;;27.08;5.13;;;;;;;10.15;54.13;103055.13;5078449;28;20067;-83
2021/04/03 08:07:37;;;;;;;34.08;5.72;;;;;;;10.17;53.66;103060.47;5064208;28;20036;-83
2021/04/03 08:10:16;;;;;;;27.88;5.70;;;;;;;10.46;53.14;103060.97;5057320;28;20033;-83
2021/04/03 08:12:43;;;;;;;25.35;3.92;;;;;;;10.61;52.61;103052.38;5049661;28;20036;-80
2021/04/03 08:15:11;;;;;;;23.98;4.45;;;;;;;10.77;52.38;103052.63;5051150;28;20033;-80
2021/04/03 08:17:41;;;;;;;29.60;4.53;;;;;;;10.76;51.95;103056.13;5036240;28;20494;-96
2021/04/03 08:20:08;;;;;;;28.80;4.27;;;;;;;10.58;51.63;103060.28;5033278;28;20033;-87
2021/04/03 08:22:34;;;;;;;26.20;5.10;;;;;;;10.82;51.37;103069.50;5045919;28;20038;-81
2021/04/03 08:25:02;;;;;;;23.65;5.50;;;;;;;10.96;50.75;103062.59;5035601;28;20026;-83
2021/04/03 08:27:34;;;;;;;23.58;4.35;;;;;;;11.20;50.48;103061.16;5038765;28;20175;-78
2021/04/03 08:30:00;;;;;;;22.07;3.90;;;;;;;11.07;50.76;103059.22;5034619;28;20029;-81
2021/04/03 08:32:26;;;;;;;24.38;5.30;;;;;;;11.28;50.80;103075.41;5030294;28;20030;-80
2021/04/03 08:34:53;;;;;;;23.95;5.13;;;;;;;11.52;50.31;103070.41;5036825;28;20026;-82
2021/04/03 08:37:19;;;;;;;34.00;7.32;;;;;;;11.55;49.06;103068.69;5040436;28;20025;-84
2021/04/03 08:39:45;;;;;;;27.23;4.35;;;;;;;11.38;49.34;103075.56;5040676;28;20033;-83
2021/04/03 08:42:12;;;;;;;26.88;5.47;;;;;;;11.18;49.69;103068.22;5035276;28;20041;-82
2021/04/03 08:44:42;;;;;;;24.88;5.53;;;;;;;11.38;49.37;103075.56;5037924;28;20506;-83
2021/04/03 08:47:09;;;;;;;25.50;4.78;;;;;;;11.54;49.37;103081.91;5040911;28;20030;-80
2021/04/03 08:49:37;;;;;;;28.80;4.03;;;;;;;11.78;49.02;103087.50;5042905;28;20033;-80
2021/04/03 08:52:06;;;;;;;26.48;4.38;;;;;;;11.79;49.44;103077.78;5040586;28;20389;-82
2021/04/03 08:54:40;;;;;;;24.17;4.97;;;;;;;11.93;48.72;103069.97;5042415;28;20028;-82
2021/04/03 08:57:29;;;;;;;28.88;4.85;;;;;;;12.21;48.01;103079.13;5043488;28;20135;-81
2021/04/03 08:59:56;;;;;;;26.77;4.68;;;;;;;12.28;48.68;103072.97;5037115;28;20036;-82
2021/04/03 09:02:22;;;;;;;29.65;4.72;;;;;;;12.25;47.73;103078.28;5040145;28;20052;-82
2021/04/03 09:04:49;;;;;;;25.05;4.07;;;;;;;12.39;47.85;103081.03;5034630;28;20185;-82
2021/04/03 09:13:13;;;;;;;22.23;4.20;;;;;;;12.74;46.71;103083.06;5037726;28;20404;-80
2021/04/03 09:15:41;;;;;;;24.00;4.00;;;;;;;12.79;46.43;103077.78;5031530;28;20448;-83
2021/04/03 09:18:10;;;;;;;19.80;4.00;;;;;;;12.79;46.62;103068.03;5019603;28;20034;-83
2021/04/03 09:20:47;;;;;;;27.02;5.13;;;;;;;12.81;46.02;103080.47;5003295;28;20409;-84
2021/04/03 09:23:13;;;;;;;29.40;4.30;;;;;;;12.88;45.91;103069.84;5008646;28;20085;-83
2021/04/03 09:25:40;;;;;;;32.05;5.30;;;;;;;12.87;45.26;103076.09;5003960;28;20034;-83
2021/04/03 09:28:13;;;;;;;20.83;4.60;;;;;;;12.60;45.13;103072.34;5003719;28;20042;-81
2021/04/03 09:30:43;;;;;;;20.10;5.28;;;;;;;12.61;45.75;103070.56;5007165;28;20033;-80
2021/04/03 09:33:19;;;;;;;17.00;4.10;;;;;;;12.81;45.70;103073.38;5002664;28;20030;-82
2021/04/03 09:35:46;;;;;;;22.55;4.78;;;;;;;12.79;45.11;103077.78;5003918;28;20381;-83
2021/04/03 09:38:13;;;;;;;22.67;4.88;;;;;;;12.92;45.75;103071.69;5009177;28;20026;-83
2021/04/03 09:40:42;;;;;;;42.92;8.90;;;;;;;13.18;44.61;103054.94;4984943;28;20038;-82
2021/04/03 09:43:10;;;;;;;23.98;5.28;;;;;;;13.06;45.80;103061.09;5002927;28;20121;-83
2021/04/03 09:45:37;;;;;;;24.63;5.20;;;;;;;13.39;45.45;103069.28;5001776;28;20145;-82
2021/04/03 09:48:05;;;;;;;22.83;4.55;;;;;;;13.53;44.97;103070.22;5007518;28;20664;-81
2021/04/03 09:50:32;;;;;;;24.77;4.10;;;;;;;13.52;44.50;103067.53;4995136;28;20030;-81
2021/04/03 09:53:08;;;;;;;20.88;4.15;;;;;;;13.79;43.45;103080.03;5000687;28;20473;-84
2021/04/03 09:55:34;;;;;;;21.13;4.20;;;;;;;14.12;43.87;103072.09;5006462;28;20488;-83
2021/04/03 09:58:00;;;;;;;32.25;6.93;;;;;;;14.33;43.54;103073.88;5000450;28;20037;-85
2021/04/03 10:00:27;;;;;;;27.33;5.25;;;;;;;14.22;43.30;103072.09;5007333;28;20077;-81
2021/04/03 10:02:53;;;;;;;22.60;4.38;;;;;;;14.26;43.01;103072.13;5003981;28;20076;-83
2021/04/03 10:05:22;;;;;;;24.02;4.32;;;;;;;14.29;43.05;103085.44;4998132;28;20038;-84
2021/04/03 10:07:49;;;;;;;20.85;4.03;;;;;;;14.23;42.75;103081.91;5014462;28;20031;-81
2021/04/03 10:10:16;;;;;;;19.20;3.90;;;;;;;14.38;42.42;103088.09;4995182;28;20084;-82
2021/04/03 10:12:42;;;;;;;27.27;4.78;;;;;;;14.27;42.53;103089.88;5007911;28;20129;-83
2021/04/03 10:15:09;;;;;;;23.42;4.38;;;;;;;14.42;42.29;103083.66;5010056;28;20026;-82
2021/04/03 10:17:36;;;;;;;22.95;4.07;;;;;;;14.48;42.41;103087.22;5010030;28;20034;-82
2021/04/03 10:20:05;;;;;;;20.05;5.45;;;;;;;14.48;42.28;103089.91;5010131;28;20080;-81
2021/04/03 10:22:31;;;;;;;21.10;4.53;;;;;;;14.39;41.91;103088.13;5006070;28;20477;-82
2021/04/03 10:24:57;;;;;;;18.77;4.78;;;;;;;14.53;42.47;103084.56;4996430;28;20033;-82
2021/04/03 10:27:23;;;;;;;20.98;4.28;;;;;;;14.37;41.86;103083.69;4996849;28;20081;-82
2021/04/03 10:29:49;;;;;;;18.27;4.30;;;;;;;14.27;41.98;103087.22;4996342;28;20027;-82
2021/04/03 10:32:16;;;;;;;23.02;4.05;;;;;;;14.15;41.62;103088.97;4996612;28;20030;-84
2021/04/03 10:34:42;;;;;;;26.58;4.18;;;;;;;14.25;41.29;103089.88;4996684;28;20030;-81
2021/04/03 10:37:08;;;;;;;15.27;3.92;;;;;;;14.34;41.61;103097.00;4996572;28;20036;-82
2021/04/03 10:39:34;;;;;;;14.68;3.47;;;;;;;14.64;41.33;103095.22;4996582;28;20026;-81
2021/04/03 10:42:00;;;;;;;24.58;4.28;;;;;;;14.79;41.20;103083.66;4996512;28;20105;-82
2021/04/03 10:44:26;;;;;;;21.58;4.55;;;;;;;15.02;40.70;103084.50;4996458;28;20037;-81
2021/04/03 10:46:53;;;;;;;15.25;3.58;;;;;;;14.95;40.32;103089.84;4996533;28;20022;-81
2021/04/03 10:49:21;;;;;;;17.73;5.50;;;;;;;14.94;40.11;103091.66;4996543;28;20022;-82
2021/04/03 10:51:48;;;;;;;17.60;4.18;;;;;;;14.93;40.45;103091.63;4996387;28;20477;-82
2021/04/03 10:54:18;;;;;;;19.00;4.55;;;;;;;14.40;41.10;103097.00;4996192;28;20448;-81
2021/04/03 10:56:44;;;;;;;18.92;4.15;;;;;;;14.56;41.26;103092.56;4996192;28;20023;-82
2021/04/03 10:59:10;;;;;;;19.30;4.07;;;;;;;14.78;40.91;103088.13;4995905;28;20035;-82
2021/04/03 11:01:36;;;;;;;18.52;5.60;;;;;;;14.68;40.68;103081.03;4996064;28;20030;-86
2021/04/03 11:04:03;;;;;;;21.52;4.43;;;;;;;14.65;40.47;103083.69;4996423;28;20045;-83
2021/04/03 11:06:29;;;;;;;25.80;4.68;;;;;;;14.54;40.62;103079.22;4996071;28;20112;-83
2021/04/03 11:08:55;;;;;;;19.63;3.95;;;;;;;14.68;40.61;103081.91;4996061;28;20038;-83
2021/04/03 11:11:21;;;;;;;21.63;4.32;;;;;;;14.95;41.15;103079.19;4995872;28;20109;-83
2021/04/03 11:13:47;;;;;;;16.40;3.50;;;;;;;15.20;40.40;103080.91;4995792;28;20041;-83
2021/04/03 11:16:13;;;;;;;25.08;3.97;;;;;;;15.39;39.84;103078.16;4995679;28;20030;-83
2021/04/03 11:18:40;;;;;;;15.27;4.03;;;;;;;15.60;39.09;103073.59;4995683;28;20038;-82
2021/04/03 11:21:06;;;;;;;19.23;4.32;;;;;;;15.65;38.74;103082.47;4995985;28;20029;-81
2021/04/03 11:23:32;;;;;;;20.27;4.00;;;;;;;15.79;38.68;103064.56;4995933;28;20034;-82
2021/04/03 11:25:58;;;;;;;20.38;4.10;;;;;;;15.90;38.42;103074.31;4995716;28;20112;-82
2021/04/03 11:28:24;;;;;;;20.45;4.07;;;;;;;15.65;38.82;103066.41;4995812;28;20069;-82
2021/04/03 11:30:50;;;;;;;16.85;4.32;;;;;;;15.53;38.85;103078.09;4995527;28;20043;-82
2021/04/03 11:33:17;;;;;;;15.82;3.80;;;;;;;15.55;38.68;103073.59;4995858;28;20030;-83
2021/04/03 11:35:43;;;;;;;17.08;3.50;;;;;;;15.46;38.57;103069.19;4994627;28;20036;-82
2021/04/03 11:38:09;;;;;;;25.45;4.20;;;;;;;15.62;38.72;103067.31;4995369;28;20405;-82
2021/04/03 11:40:35;;;;;;;16.40;3.70;;;;;;;15.67;38.75;103072.66;4995110;28;20030;-83
2021/04/03 11:43:02;;;;;;;21.42;3.70;;;;;;;15.71;38.94;103069.06;4995325;28;20034;-82
2021/04/03 11:45:28;;;;;;;14.82;3.80;;;;;;;15.62;38.65;103061.13;4995402;28;20030;-82
2021/04/03 11:47:54;;;;;;;22.35;4.32;;;;;;;15.71;38.63;103055.69;4995550;28;20023;-81
2021/04/03 11:50:21;;;;;;;12.02;3.85;;;;;;;15.67;38.40;103064.63;4995479;28;20030;-82
2021/04/03 11:52:48;;;;;;;17.98;4.18;;;;;;;15.94;38.28;103057.38;4995305;28;20118;-82
2021/04/03 11:55:16;;;;;;;23.85;4.97;;;;;;;16.00;37.83;103065.38;4995006;28;20027;-82
2021/04/03 11:57:43;;;;;;;24.67;5.03;;;;;;;16.05;37.74;103060.88;4994909;28;20027;-81
2021/04/03 12:00:10;;;;;;;18.80;4.22;;;;;;;15.92;37.48;103064.53;4994935;28;20493;-82
2021/04/03 12:02:38;;;;;;;23.88;4.40;;;;;;;16.01;37.64;103061.75;4995177;28;20069;-82
2021/04/03 12:05:06;;;;;;;12.15;3.42;;;;;;;15.99;38.10;103061.78;4995022;28;20113;-82
2021/04/03 12:07:39;;;;;;;16.02;3.38;;;;;;;15.95;38.20;103054.69;4995052;28;20031;-82
2021/04/03 12:10:08;;;;;;;17.33;4.50;;;;;;;15.96;38.39;103055.56;4994749;28;20434;-82
2021/04/03 12:12:36;;;;;;;14.15;3.15;;;;;;;16.07;37.54;103052.81;4994508;28;20081;-81